Time;durP1;ratioP1;P1;durP2;ratioP2;P2;SDS_P1;SDS_P2;PMS_P1;PMS_P2;Temp;Humidity;BMP_temperature;BMP_pressure;BME280_temperature;BME280_humidity;BME280_pressure;Samples;Min_cycle;Max_cycle;Signal;HPM_P1;HPM_P2
2022/11/06 00:01:18;;;;;;;48.38;25.75;;;;;;;9.55;96.77;96727.66;5024283;28;20103;-62
2022/11/06 00:03:44;;;;;;;46.35;24.88;;;;;;;9.72;97.39;96776.91;5023171;28;20049;-61
2022/11/06 00:09:01;;;;;;;47.60;25.10;;;;;;;9.50;97.71;96768.66;5024151;28;20409;-55
2022/11/06 00:11:29;;;;;;;45.78;24.67;;;;;;;9.57;98.23;96786.16;5022744;28;21839;-55
2022/11/06 00:13:56;;;;;;;37.65;23.27;;;;;;;9.60;99.00;96785.41;5024388;28;20087;-62
2022/11/06 00:16:23;;;;;;;44.25;22.95;;;;;;;9.10;100.00;96716.66;5024277;28;20077;-62
2022/11/06 00:18:50;;;;;;;44.55;22.85;;;;;;;9.58;100.00;96776.69;5024176;28;20570;-54
2022/11/06 00:21:25;;;;;;;52.80;23.50;;;;;;;9.46;100.00;96785.19;5024127;28;20141;-55
2022/11/06 00:23:53;;;;;;;46.75;23.90;;;;;;;9.53;100.00;96785.28;5024162;28;20129;-62
2022/11/06 00:26:23;;;;;;;42.60;24.00;;;;;;;9.71;100.00;96791.94;5024053;28;20828;-62
2022/11/06 00:28:51;;;;;;;43.28;21.23;;;;;;;9.87;100.00;96778.75;5024227;28;20053;-56
2022/11/06 00:31:23;;;;;;;39.60;21.17;;;;;;;9.97;100.00;96780.88;5024005;28;20045;-62
2022/11/06 00:33:52;;;;;;;51.80;23.67;;;;;;;10.05;100.00;96779.78;5025492;28;20050;-63
2022/11/06 00:36:21;;;;;;;45.75;23.65;;;;;;;9.95;100.00;96780.47;5028119;28;20516;-62
2022/11/06 00:38:51;;;;;;;48.10;24.35;;;;;;;9.93;100.00;96782.78;5028172;28;20151;-54
2022/11/06 00:41:19;;;;;;;44.13;20.85;;;;;;;9.89;100.00;96776.41;5026557;28;20123;-62
2022/11/06 00:43:50;;;;;;;48.67;20.73;;;;;;;9.86;100.00;96774.41;5028518;28;20399;-55
2022/11/06 00:46:18;;;;;;;40.97;21.10;;;;;;;9.86;100.00;96768.88;5027681;28;20057;-62
2022/11/06 00:48:44;;;;;;;38.58;21.13;;;;;;;9.94;100.00;96778.84;5027913;28;20229;-62
2022/11/06 00:51:19;;;;;;;35.03;21.02;;;;;;;9.92;100.00;96775.66;5027826;28;20110;-57
2022/11/06 00:53:45;;;;;;;39.60;22.02;;;;;;;9.23;100.00;96692.41;5026668;28;20544;-62
2022/11/06 00:56:15;;;;;;;47.25;22.38;;;;;;;9.63;100.00;96773.63;5028207;28;20057;-62
2022/11/06 00:58:43;;;;;;;36.45;20.13;;;;;;;9.32;100.00;96718.63;5027449;28;20062;-61
2022/11/06 01:01:22;;;;;;;43.55;21.45;;;;;;;9.75;100.00;96765.13;5027441;28;20504;-62
2022/11/06 01:03:58;;;;;;;39.53;21.85;;;;;;;9.73;100.00;96745.34;5027382;28;20370;-56
2022/11/06 01:06:27;;;;;;;38.45;19.90;;;;;;;9.80;100.00;96764.78;5027751;28;20570;-55
2022/11/06 01:08:54;;;;;;;39.03;20.88;;;;;;;9.68;100.00;96753.94;5027140;28;20091;-65
2022/11/06 01:11:24;;;;;;;34.55;20.42;;;;;;;9.59;100.00;96750.66;5027637;28;20129;-62
2022/11/06 01:13:54;;;;;;;43.05;21.15;;;;;;;9.25;100.00;96701.91;5027706;28;20046;-54
2022/11/06 01:16:22;;;;;;;45.83;22.98;;;;;;;9.68;100.00;96745.66;5027343;28;20150;-63
2022/11/06 01:18:50;;;;;;;38.50;21.50;;;;;;;9.76;100.00;96744.59;5026973;28;20477;-55
2022/11/06 01:21:20;;;;;;;41.72;21.70;;;;;;;9.71;100.00;96744.91;5027195;28;20096;-55
2022/11/06 01:23:55;;;;;;;46.20;22.05;;;;;;;9.84;100.00;96746.31;5027186;28;20132;-62
2022/11/06 01:26:22;;;;;;;42.30;20.77;;;;;;;9.56;100.00;96701.63;5027258;28;20077;-54
2022/11/06 01:29:06;;;;;;;48.95;19.90;;;;;;;9.92;100.00;96734.16;5026296;28;20167;-62
2022/11/06 01:31:34;;;;;;;35.55;20.05;;;;;;;10.09;100.00;96752.22;5027152;28;20099;-62
2022/11/06 01:34:01;;;;;;;49.35;19.25;;;;;;;10.07;100.00;96749.81;5026854;28;20152;-62
2022/11/06 01:36:28;;;;;;;41.45;20.85;;;;;;;9.52;100.00;96656.53;5026758;28;20057;-62
2022/11/06 01:39:00;;;;;;;37.05;19.73;;;;;;;10.03;100.00;96740.66;5027097;28;20085;-62
2022/11/06 01:41:30;;;;;;;42.42;19.80;;;;;;;9.98;100.00;96740.97;5027076;28;20556;-54
2022/11/06 01:44:00;;;;;;;38.28;19.20;;;;;;;9.97;100.00;96744.91;5025509;28;20100;-57
2022/11/06 01:46:29;;;;;;;40.33;20.83;;;;;;;9.70;100.00;96707.38;5024972;28;20080;-62
2022/11/06 01:48:59;;;;;;;34.13;19.02;;;;;;;9.93;100.00;96741.28;5026598;28;20136;-62
2022/11/06 01:51:28;;;;;;;33.65;17.95;;;;;;;9.89;100.00;96737.69;5025456;28;20049;-55
2022/11/06 01:53:56;;;;;;;34.15;19.15;;;;;;;9.81;100.00;96744.28;5026808;28;20675;-62
2022/11/06 01:56:23;;;;;;;34.67;18.25;;;;;;;9.70;100.00;96718.44;5027080;28;20069;-55
2022/11/06 01:58:52;;;;;;;35.03;19.42;;;;;;;9.74;100.00;96713.75;5026437;28;20611;-62
2022/11/06 02:01:19;;;;;;;38.28;19.80;;;;;;;9.88;100.00;96747.13;5026590;28;20050;-54
2022/11/06 02:03:54;;;;;;;46.45;20.40;;;;;;;9.43;100.00;96683.66;5027032;28;20045;-57
2022/11/06 02:06:20;;;;;;;37.80;18.98;;;;;;;9.67;100.00;96721.94;5026292;28;20079;-63
2022/11/06 02:08:47;;;;;;;36.28;18.35;;;;;;;9.91;100.00;96748.38;5026493;28;20091;-62
2022/11/06 02:11:14;;;;;;;37.65;18.55;;;;;;;9.80;100.00;96756.50;5026307;28;20132;-62
2022/11/06 02:13:40;;;;;;;41.63;19.42;;;;;;;9.75;100.00;96751.31;5026259;28;20172;-56
2022/11/06 02:16:19;;;;;;;32.67;19.17;;;;;;;9.76;100.00;96744.59;5026198;28;20092;-62
2022/11/06 02:19:11;;;;;;;35.70;19.45;;;;;;;9.76;100.00;96739.06;5026381;28;20148;-62
2022/11/06 02:21:55;;;;;;;40.78;20.08;;;;;;;9.34;100.00;96727.34;5026185;28;20548;-54
2022/11/06 02:24:40;;;;;;;38.92;19.80;;;;;;;9.62;100.00;96743.56;5026069;28;20131;-62
2022/11/06 02:27:11;;;;;;;41.25;20.50;;;;;;;9.52;100.00;96753.28;5025953;28;20136;-62
2022/11/06 02:29:44;;;;;;;35.45;18.58;;;;;;;9.03;100.00;96755.19;5025822;28;20506;-62
2022/11/06 02:32:17;;;;;;;39.80;21.15;;;;;;;8.79;100.00;96722.41;5025887;28;20081;-55
2022/11/06 02:34:46;;;;;;;37.33;19.52;;;;;;;9.18;100.00;96751.53;5026159;28;20049;-63
2022/11/06 02:37:18;;;;;;;36.50;17.38;;;;;;;8.56;100.00;96658.09;5026256;28;20085;-62
2022/11/06 02:39:47;;;;;;;31.42;18.48;;;;;;;9.20;100.00;96750.00;5025934;28;20050;-62
2022/11/06 02:42:17;;;;;;;30.30;17.67;;;;;;;8.99;100.00;96721.22;5025525;28;20132;-55
2022/11/06 02:44:48;;;;;;;37.67;18.58;;;;;;;8.44;100.00;96634.19;5025963;28;20136;-62
2022/11/06 02:47:17;;;;;;;38.60;18.85;;;;;;;8.95;100.00;96723.91;5025322;28;20431;-55
2022/11/06 02:49:46;;;;;;;49.75;20.98;;;;;;;8.59;100.00;96669.19;5026015;28;20144;-54
2022/11/06 02:52:25;;;;;;;41.17;19.48;;;;;;;9.03;100.00;96733.09;5023891;28;20053;-54
2022/11/06 02:54:59;;;;;;;37.17;19.73;;;;;;;9.03;100.00;96733.91;5025407;28;20140;-63
2022/11/06 02:57:27;;;;;;;40.00;19.98;;;;;;;8.76;100.00;96712.09;5024836;28;20569;-54
2022/11/06 03:00:01;;;;;;;35.85;19.63;;;;;;;9.11;100.00;96743.94;5025578;28;20088;-58
2022/11/06 03:02:35;;;;;;;37.28;20.25;;;;;;;8.78;100.00;96699.53;5024152;28;20085;-55
2022/11/06 03:05:16;;;;;;;44.83;21.58;;;;;;;8.97;100.00;96742.88;5024033;28;20148;-63
2022/11/06 03:07:59;;;;;;;32.83;17.67;;;;;;;8.46;100.00;96650.41;5025241;28;20600;-62
2022/11/06 03:10:32;;;;;;;32.25;19.40;;;;;;;9.10;100.00;96756.13;5024807;28;20099;-63
2022/11/06 03:13:17;;;;;;;33.80;18.92;;;;;;;9.05;100.00;96758.41;5025168;28;20136;-63
2022/11/06 03:15:57;;;;;;;35.58;18.52;;;;;;;9.05;100.00;96756.44;5023431;28;20603;-54
2022/11/06 03:18:32;;;;;;;38.22;19.45;;;;;;;8.97;100.00;96765.78;5023723;28;20076;-62
2022/11/06 03:21:08;;;;;;;42.40;17.95;;;;;;;8.99;100.00;96757.13;5023445;28;20123;-54
2022/11/06 03:23:47;;;;;;;35.65;18.65;;;;;;;9.07;100.00;96767.13;5024737;28;20496;-54
2022/11/06 03:26:21;;;;;;;39.40;19.60;;;;;;;8.76;100.00;96783.88;5025096;28;20053;-62
2022/11/06 03:28:55;;;;;;;46.30;21.70;;;;;;;8.00;100.00;96717.63;5025242;28;20050;-61
2022/11/06 03:31:35;;;;;;;32.97;19.30;;;;;;;8.52;100.00;96784.22;5025296;28;20053;-62
2022/11/06 03:34:11;;;;;;;35.58;19.08;;;;;;;8.52;100.00;96784.22;5023953;28;20084;-57
2022/11/06 03:36:45;;;;;;;37.63;19.02;;;;;;;8.52;100.00;96778.69;5023583;28;20131;-62
2022/11/06 03:39:19;;;;;;;39.05;20.40;;;;;;;8.63;100.00;96782.47;5024904;28;20579;-62
2022/11/06 03:41:55;;;;;;;37.25;20.77;;;;;;;8.03;100.00;96683.81;5017725;28;20114;-54
2022/11/06 03:44:25;;;;;;;45.25;20.25;;;;;;;8.78;100.00;96776.03;5035466;28;20141;-63
2022/11/06 03:47:06;;;;;;;40.65;20.33;;;;;;;8.10;100.00;96665.44;5024373;28;20088;-62
2022/11/06 03:49:54;;;;;;;42.70;18.63;;;;;;;8.81;100.00;96783.59;5024588;28;20056;-62
2022/11/06 03:52:30;;;;;;;29.90;17.95;;;;;;;8.62;100.00;96789.13;5024518;28;20050;-62
2022/11/06 03:55:04;;;;;;;44.83;20.98;;;;;;;8.69;100.00;96789.28;5024546;28;20092;-54
2022/11/06 03:57:46;;;;;;;37.17;19.98;;;;;;;8.62;100.00;96783.59;5024723;28;20132;-63
2022/11/06 04:00:15;;;;;;;34.40;18.67;;;;;;;8.50;100.00;96797.56;5023852;28;20119;-63
2022/11/06 04:03:03;;;;;;;39.15;20.42;;;;;;;7.76;99.51;96668.25;5023170;28;20081;-55
2022/11/06 04:05:38;;;;;;;40.90;19.85;;;;;;;8.35;99.86;96795.66;5024699;28;20584;-63
2022/11/06 04:14:03;;;;;;;39.10;20.40;;;;;;;8.25;100.00;96801.75;5024261;28;20124;-62
2022/11/06 04:16:44;;;;;;;39.72;20.00;;;;;;;8.15;100.00;96796.75;5023094;28;20128;-62
2022/11/06 04:19:19;;;;;;;38.88;21.48;;;;;;;8.08;100.00;96808.44;5024312;28;20144;-57
2022/11/06 04:22:15;;;;;;;33.63;21.23;;;;;;;7.98;100.00;96805.44;5024233;28;20132;-55
2022/11/06 04:28:15;;;;;;;39.40;20.05;;;;;;;7.96;100.00;96807.75;5024136;28;20156;-64
2022/11/06 04:30:59;;;;;;;37.28;20.10;;;;;;;8.12;100.00;96814.84;5024026;28;20599;-62
2022/11/06 04:33:31;;;;;;;;;;;;;;;8.11;100.00;96817.97;5024550;28;20063;-62
2022/11/06 04:36:05;;;;;;;34.33;18.80;;;;;;;8.18;100.00;96807.06;5022247;28;19971;-55
2022/11/06 04:38:43;;;;;;;41.33;21.85;;;;;;;8.21;100.00;96807.16;5023602;28;20524;-55
2022/11/06 04:41:33;;;;;;;44.70;21.42;;;;;;;7.69;100.00;96730.34;5024102;28;20060;-62
2022/11/06 04:44:12;;;;;;;38.03;19.98;;;;;;;8.29;100.00;96805.38;5021507;28;20092;-62
2022/11/06 04:46:53;;;;;;;36.47;20.15;;;;;;;8.37;100.00;96798.84;5023210;28;20148;-55
2022/11/06 04:49:22;;;;;;;32.40;18.38;;;;;;;7.97;100.00;96735.69;5023330;28;20049;-61
2022/11/06 04:51:49;;;;;;;33.00;18.20;;;;;;;8.53;100.00;96807.88;5023608;28;20136;-55
2022/11/06 04:54:16;;;;;;;37.72;18.27;;;;;;;8.55;100.00;96816.59;5023833;28;20199;-55
2022/11/06 04:56:43;;;;;;;44.97;21.92;;;;;;;8.53;100.00;96810.63;5023888;28;20084;-54
2022/11/06 04:59:15;;;;;;;36.70;20.95;;;;;;;8.63;100.00;96841.22;5023518;28;20053;-61
2022/11/06 05:01:42;;;;;;;34.28;18.00;;;;;;;8.65;100.00;96810.47;5023568;28;20152;-62
2022/11/06 05:04:10;;;;;;;36.17;20.08;;;;;;;8.63;100.00;96807.31;5023902;28;20057;-63
2022/11/06 05:06:37;;;;;;;37.22;18.42;;;;;;;8.54;100.00;96815.78;5023933;28;20111;-55
2022/11/06 05:09:03;;;;;;;38.88;18.35;;;;;;;8.54;100.00;96815.78;5023924;28;20092;-56
2022/11/06 05:11:30;;;;;;;31.08;18.63;;;;;;;8.68;100.00;96815.28;5022125;28;20049;-62
2022/11/06 05:13:57;;;;;;;33.15;17.40;;;;;;;8.66;100.00;96823.91;5023991;28;20049;-55
2022/11/06 05:16:23;;;;;;;29.60;17.35;;;;;;;8.08;100.00;96719.41;5022090;28;20135;-62
2022/11/06 05:18:50;;;;;;;33.05;17.83;;;;;;;8.73;100.00;96823.28;5023326;28;20149;-63
2022/11/06 05:24:02;;;;;;;29.10;17.17;;;;;;;8.50;100.00;96792.03;5027186;28;20053;-62
2022/11/06 05:26:29;;;;;;;29.45;16.00;;;;;;;8.82;100.00;96826.63;5027379;28;20054;-63
2022/11/06 05:28:56;;;;;;;35.13;17.30;;;;;;;8.89;100.00;96832.28;5026893;28;20136;-63
2022/11/06 05:31:23;;;;;;;37.33;17.48;;;;;;;8.68;100.00;96776.63;5026737;28;20088;-64
2022/11/06 05:33:50;;;;;;;48.42;23.27;;;;;;;8.50;97.75;96767.19;5027230;28;20581;-55
2022/11/06 05:36:16;;;;;;;39.88;19.98;;;;;;;8.95;99.56;96837.16;5026685;28;20065;-55
2022/11/06 05:38:43;;;;;;;38.13;17.65;;;;;;;9.10;100.00;96838.22;5027203;28;20144;-63
2022/11/06 05:41:10;;;;;;;35.63;19.98;;;;;;;9.10;97.69;96846.53;5025263;28;20053;-62
2022/11/06 05:43:36;;;;;;;33.88;18.77;;;;;;;9.07;98.36;96850.00;5026939;28;20271;-63
2022/11/06 05:46:03;;;;;;;40.38;21.85;;;;;;;9.26;99.67;96852.75;5024852;28;20089;-64
2022/11/06 05:48:30;;;;;;;60.90;42.63;;;;;;;9.35;97.92;96858.84;5026302;28;20081;-57
2022/11/06 05:51:06;;;;;;;40.67;23.08;;;;;;;9.20;96.86;96848.66;5026711;28;20612;-63
2022/11/06 05:53:35;;;;;;;39.05;19.90;;;;;;;9.30;96.14;96908.88;5026186;28;20156;-55
2022/11/06 05:56:02;;;;;;;37.00;17.77;;;;;;;9.01;93.99;96840.41;5026654;28;20053;-55
2022/11/06 05:58:29;;;;;;;36.75;18.38;;;;;;;9.16;91.75;96875.44;5026264;28;20089;-54
2022/11/06 06:00:57;;;;;;;101.80;38.85;;;;;;;9.03;91.45;96854.66;5025251;28;20589;-63
2022/11/06 06:03:24;;;;;;;91.22;33.95;;;;;;;8.92;88.19;96803.94;5026353;28;20080;-57
2022/11/06 06:05:51;;;;;;;98.40;36.20;;;;;;;9.21;89.24;96858.56;5025089;28;20083;-55
2022/11/06 06:08:18;;;;;;;148.25;49.55;;;;;;;9.23;89.83;96874.78;5026091;28;20542;-57
2022/11/06 06:10:46;;;;;;;128.75;49.03;;;;;;;9.37;90.63;96884.16;5026629;28;20132;-56
2022/11/06 06:13:13;;;;;;;71.28;31.02;;;;;;;9.54;91.53;96875.38;5024657;28;20520;-63
2022/11/06 06:15:41;;;;;;;46.83;22.35;;;;;;;9.32;95.31;96840.22;5026169;28;20173;-63
2022/11/06 06:18:09;;;;;;;61.28;31.52;;;;;;;9.80;96.29;96883.75;5025970;28;20093;-62
2022/11/06 06:20:36;;;;;;;46.00;23.33;;;;;;;9.44;95.57;96808.84;5026282;28;20722;-56
2022/11/06 06:23:03;;;;;;;41.20;21.88;;;;;;;10.04;95.27;96893.63;5026450;28;20057;-63
2022/11/06 06:25:34;;;;;;;38.50;20.05;;;;;;;10.15;96.84;96905.69;5026344;28;20053;-63
2022/11/06 06:28:01;;;;;;;37.25;20.35;;;;;;;10.34;97.98;96891.75;5026402;28;20092;-56
2022/11/06 06:30:27;;;;;;;41.85;21.88;;;;;;;10.52;98.13;96899.19;5026132;28;20455;-55
2022/11/06 06:32:54;;;;;;;49.60;26.95;;;;;;;10.68;97.76;96907.31;5024715;28;20050;-56
2022/11/06 06:35:21;;;;;;;38.42;22.70;;;;;;;10.75;98.42;96901.09;5026074;28;20138;-55
2022/11/06 06:37:53;;;;;;;40.08;20.40;;;;;;;10.47;97.92;96824.75;5025650;28;20128;-64
2022/11/06 06:40:21;;;;;;;35.60;22.23;;;;;;;11.17;98.16;96907.19;5025710;28;20492;-55
2022/11/06 06:42:48;;;;;;;49.90;22.42;;;;;;;10.43;98.16;96779.56;5025687;28;20133;-55
2022/11/06 06:45:15;;;;;;;38.85;22.52;;;;;;;11.52;98.21;96913.94;5023628;28;20543;-57
2022/11/06 06:47:42;;;;;;;48.60;23.83;;;;;;;11.81;96.83;96931.72;5025586;28;20148;-63
2022/11/06 06:50:09;;;;;;;46.83;27.73;;;;;;;12.05;95.73;96917.28;5025889;28;20085;-57
2022/11/06 06:52:36;;;;;;;35.63;20.05;;;;;;;12.21;95.13;96923.38;5025671;28;20141;-56
2022/11/06 06:55:03;;;;;;;34.70;18.58;;;;;;;12.48;94.85;96932.31;5025119;28;20137;-55
2022/11/06 06:57:30;;;;;;;34.95;19.48;;;;;;;12.60;93.66;96913.34;5025475;28;20080;-63
2022/11/06 06:59:56;;;;;;;26.67;16.70;;;;;;;12.78;92.82;96930.97;5024972;28;20664;-64
2022/11/06 07:02:23;;;;;;;30.40;16.63;;;;;;;12.66;92.89;96878.47;5025595;28;20049;-56
2022/11/06 07:04:50;;;;;;;25.27;16.30;;;;;;;13.21;90.82;96926.47;5025358;28;20531;-59
2022/11/06 07:07:17;;;;;;;34.10;16.35;;;;;;;13.25;90.35;96919.72;5023411;28;20045;-63
2022/11/06 07:09:43;;;;;;;25.25;14.48;;;;;;;13.26;90.19;96912.19;5024012;28;20164;-55
2022/11/06 07:12:10;;;;;;;30.40;17.02;;;;;;;13.11;89.46;96854.91;5024896;28;20174;-63
2022/11/06 07:14:37;;;;;;;32.78;18.20;;;;;;;13.55;88.67;96920.25;5025296;28;20128;-56
2022/11/06 07:17:03;;;;;;;40.35;21.83;;;;;;;13.88;87.77;96937.84;5024791;28;20116;-56
2022/11/06 07:19:30;;;;;;;37.88;21.90;;;;;;;14.16;86.21;96926.75;5024687;28;20085;-63
2022/11/06 07:21:56;;;;;;;36.38;18.48;;;;;;;14.22;85.76;96925.16;5025089;28;20049;-63
2022/11/06 07:24:23;;;;;;;48.90;23.83;;;;;;;14.61;85.15;96931.56;5025299;28;20130;-64
2022/11/06 07:26:50;;;;;;;37.92;20.40;;;;;;;14.98;82.56;96929.13;5025088;28;20045;-56
2022/11/06 07:29:16;;;;;;;39.78;20.80;;;;;;;15.18;80.50;96882.84;5024722;28;20045;-55
2022/11/06 07:31:43;;;;;;;33.28;18.48;;;;;;;15.68;77.64;96923.31;5023741;28;20057;-64
2022/11/06 07:34:10;;;;;;;35.05;18.38;;;;;;;15.78;77.02;96933.66;5025024;28;20055;-63
2022/11/06 07:36:36;;;;;;;36.15;18.90;;;;;;;15.10;77.35;96839.44;5024898;28;20089;-63
2022/11/06 07:39:03;;;;;;;34.60;18.65;;;;;;;15.85;76.90;96933.63;5024889;28;20088;-55
2022/11/06 07:41:29;;;;;;;35.28;20.13;;;;;;;15.82;76.94;96928.06;5025014;28;20088;-61
2022/11/06 07:43:56;;;;;;;36.70;18.10;;;;;;;15.79;77.34;96924.06;5024904;28;20077;-62
2022/11/06 07:46:23;;;;;;;27.88;17.35;;;;;;;15.79;77.07;96929.66;5024320;28;20053;-56
2022/11/06 07:48:49;;;;;;;32.22;18.05;;;;;;;15.30;77.13;96854.47;5023612;28;20104;-56
2022/11/06 07:51:16;;;;;;;33.17;17.38;;;;;;;15.12;80.11;96917.94;5024600;28;20045;-58
2022/11/06 07:53:43;;;;;;;36.63;18.55;;;;;;;14.93;78.95;96866.19;5024634;28;20107;-56
2022/11/06 07:56:09;;;;;;;34.00;17.23;;;;;;;14.67;82.19;96919.63;5024680;28;20052;-63
2022/11/06 07:58:36;;;;;;;33.88;18.45;;;;;;;14.50;83.40;96886.19;5024349;28;20132;-64
2022/11/06 08:01:03;;;;;;;30.05;17.42;;;;;;;15.02;82.11;96918.75;5024511;28;20093;-55
2022/11/06 08:03:30;;;;;;;31.95;16.23;;;;;;;14.93;81.08;96882.13;5024468;28;20111;-58
2022/11/06 08:05:58;;;;;;;32.30;17.63;;;;;;;15.38;80.45;96916.66;5024470;28;20551;-63
2022/11/06 08:08:26;;;;;;;32.10;17.13;;;;;;;15.58;80.56;96918.59;5024465;28;20191;-63
2022/11/06 08:10:53;;;;;;;34.50;19.05;;;;;;;15.80;79.29;96924.88;5023058;28;20085;-62
2022/11/06 08:13:20;;;;;;;34.42;17.17;;;;;;;15.61;78.28;96858.34;5024082;28;20501;-63
2022/11/06 08:15:47;;;;;;;36.53;18.13;;;;;;;16.30;77.91;96920.56;5022880;28;20136;-63
2022/11/06 08:18:13;;;;;;;32.03;17.27;;;;;;;16.32;74.74;96874.22;5022882;28;20314;-57
2022/11/06 08:20:41;;;;;;;39.45;17.63;;;;;;;16.35;74.10;96873.41;5023873;28;20057;-63
2022/11/06 08:23:10;;;;;;;46.58;20.00;;;;;;;16.82;74.16;96915.78;5023802;28;20103;-55
2022/11/06 08:25:37;;;;;;;27.75;16.77;;;;;;;16.97;73.07;96917.22;5024244;28;20338;-64
2022/11/06 08:28:04;;;;;;;32.72;17.65;;;;;;;17.12;71.94;96910.28;5023969;28;20287;-56
2022/11/06 08:30:32;;;;;;;36.33;18.90;;;;;;;17.33;72.33;96921.22;5023908;28;20053;-56
2022/11/06 08:33:01;;;;;;;39.35;18.10;;;;;;;17.56;71.90;96913.00;5024044;28;20077;-63
2022/11/06 08:35:27;;;;;;;28.00;17.50;;;;;;;17.71;70.92;96905.97;5024021;28;20058;-57
2022/11/06 08:37:55;;;;;;;28.63;15.77;;;;;;;17.97;69.11;96911.63;5023771;28;20562;-55
2022/11/06 08:40:22;;;;;;;35.30;18.20;;;;;;;17.72;68.47;96879.56;5023907;28;20053;-64
2022/11/06 08:43:05;;;;;;;32.05;17.02;;;;;;;18.16;68.71;96910.16;5024028;28;20053;-64
2022/11/06 08:45:35;;;;;;;31.55;16.88;;;;;;;18.39;67.27;96915.84;5023604;28;20056;-53
2022/11/06 08:48:02;;;;;;;33.15;16.52;;;;;;;18.36;67.13;96913.84;5024124;28;20462;-56
2022/11/06 08:50:30;;;;;;;29.67;16.58;;;;;;;18.38;66.92;96875.00;5023595;28;20116;-54
2022/11/06 08:52:59;;;;;;;35.75;17.80;;;;;;;18.42;66.20;96830.84;5023615;28;20546;-63
2022/11/06 08:55:26;;;;;;;32.40;17.00;;;;;;;18.96;65.10;96905.25;5024377;28;20061;-62
2022/11/06 08:57:54;;;;;;;27.58;16.48;;;;;;;19.13;65.52;96915.38;5027704;28;20075;-62
2022/11/06 09:00:21;;;;;;;28.80;15.57;;;;;;;18.98;64.88;96868.34;5026261;28;20085;-61
2022/11/06 09:02:48;;;;;;;27.20;15.57;;;;;;;19.33;64.76;96947.09;5027489;28;20053;-62
2022/11/06 09:05:15;;;;;;;25.85;15.13;;;;;;;19.31;64.62;96918.69;5026428;28;20108;-64
2022/11/06 09:07:42;;;;;;;26.27;14.90;;;;;;;19.13;64.98;96903.34;5027413;28;20049;-62
2022/11/06 09:10:08;;;;;;;32.15;14.95;;;;;;;19.15;65.25;96917.75;5026070;28;20088;-62
2022/11/06 09:12:35;;;;;;;30.67;14.50;;;;;;;18.65;65.64;96872.91;5027804;28;20503;-55
2022/11/06 09:15:02;;;;;;;29.23;14.10;;;;;;;18.70;66.21;96903.28;5027728;28;20057;-63
2022/11/06 09:17:29;;;;;;;29.48;14.55;;;;;;;18.74;66.59;96920.88;5027649;28;20053;-63
2022/11/06 09:19:56;;;;;;;25.52;14.45;;;;;;;18.77;66.39;96914.41;5027088;28;20143;-63
2022/11/06 09:22:23;;;;;;;25.30;14.75;;;;;;;18.82;66.61;96915.94;5025400;28;20087;-54
2022/11/06 09:24:49;;;;;;;24.58;13.50;;;;;;;18.80;67.19;96913.56;5025612;28;20484;-54
2022/11/06 09:27:29;;;;;;;26.95;13.13;;;;;;;18.89;66.56;96915.81;5027500;28;20049;-54
2022/11/06 09:29:56;;;;;;;27.38;12.85;;;;;;;18.42;68.19;96920.59;5026966;28;20069;-63
2022/11/06 09:32:23;;;;;;;27.52;13.45;;;;;;;18.47;68.42;96905.28;5027573;28;20068;-64
2022/11/06 09:34:50;;;;;;;26.20;12.73;;;;;;;18.53;67.21;96886.75;5027254;28;20090;-63
2022/11/06 09:37:17;;;;;;;29.50;12.32;;;;;;;18.51;67.04;96869.59;5027245;28;20497;-55
2022/11/06 09:39:43;;;;;;;26.85;13.82;;;;;;;19.01;66.63;96921.63;5025668;28;20053;-64
2022/11/06 09:42:34;;;;;;;23.80;12.45;;;;;;;19.03;66.17;96905.13;5026853;28;20583;-55
2022/11/06 09:45:10;;;;;;;22.52;13.27;;;;;;;19.32;65.31;96911.03;5026748;28;20045;-56
2022/11/06 09:47:40;;;;;;;31.95;13.88;;;;;;;19.42;64.99;96921.28;5025228;28;20203;-54
2022/11/06 09:50:16;;;;;;;26.55;13.98;;;;;;;19.41;64.96;96919.69;5026692;28;20599;-54
2022/11/06 09:53:11;;;;;;;24.65;13.25;;;;;;;19.26;65.04;96902.28;5026588;28;20049;-64
2022/11/06 09:55:41;;;;;;;34.78;16.23;;;;;;;19.40;65.25;96918.88;5026569;28;20527;-54
2022/11/06 09:58:19;;;;;;;23.73;13.45;;;;;;;19.37;64.97;96919.75;5026891;28;20136;-54
2022/11/06 10:00:47;;;;;;;31.13;13.73;;;;;;;18.84;65.33;96840.53;5025192;28;20120;-54
2022/11/06 10:03:25;;;;;;;26.30;12.23;;;;;;;19.50;64.74;96909.47;5026353;28;20115;-55
2022/11/06 10:05:52;;;;;;;25.42;12.10;;;;;;;19.65;64.10;96906.38;5026563;28;20511;-54
2022/11/06 10:08:22;;;;;;;28.00;12.00;;;;;;;19.42;63.72;96865.88;5026412;28;20057;-54
2022/11/06 10:11:06;;;;;;;21.63;11.55;;;;;;;19.87;63.58;96910.31;5026717;28;20252;-57
2022/11/06 10:13:57;;;;;;;24.58;11.30;;;;;;;20.10;62.32;96894.13;5026707;28;20050;-63
2022/11/06 10:16:48;;;;;;;19.33;11.85;;;;;;;19.89;62.77;96896.59;5026696;28;20548;-54
2022/11/06 10:19:56;;;;;;;21.42;10.43;;;;;;;19.90;63.16;96889.75;5025173;28;20151;-56
2022/11/06 10:22:35;;;;;;;23.17;11.52;;;;;;;19.92;62.81;96890.09;5024933;28;20053;-63
2022/11/06 10:25:23;;;;;;;23.67;11.27;;;;;;;20.09;62.56;96886.88;5023077;28;20542;-63
2022/11/06 10:28:07;;;;;;;28.83;12.20;;;;;;;20.25;61.90;96883.38;5026581;28;20096;-63
2022/11/06 10:30:52;;;;;;;23.58;11.93;;;;;;;20.34;61.68;96887.16;5025865;28;21704;-56
2022/11/06 10:33:32;;;;;;;26.23;11.82;;;;;;;20.58;60.85;96879.34;5026022;28;20061;-63
2022/11/06 10:36:07;;;;;;;24.00;11.48;;;;;;;20.02;61.82;96880.66;5026039;28;20107;-63
2022/11/06 10:38:41;;;;;;;25.20;12.45;;;;;;;20.11;62.20;96872.38;5024545;28;20565;-63
2022/11/06 10:41:17;;;;;;;25.98;11.13;;;;;;;20.00;61.95;96849.34;5026056;28;20053;-54
2022/11/06 10:44:02;;;;;;;23.80;10.50;;;;;;;20.11;61.57;96850.69;5025993;28;20111;-54
2022/11/06 10:46:39;;;;;;;16.77;10.45;;;;;;;19.66;63.19;96868.59;5025503;28;21153;-53
2022/11/06 10:49:43;;;;;;;21.77;11.70;;;;;;;19.72;63.16;96861.22;5025961;28;20053;-54
2022/11/06 10:52:41;;;;;;;23.45;10.98;;;;;;;17.67;62.53;96521.47;5025845;28;20049;-63
2022/11/06 10:55:40;;;;;;;17.77;10.57;;;;;;;19.85;62.90;96850.91;5025779;28;20057;-55
2022/11/06 10:58:20;;;;;;;22.17;10.52;;;;;;;20.02;62.45;96852.53;5025639;28;20140;-54
2022/11/06 11:00:49;;;;;;;24.20;11.07;;;;;;;20.22;61.59;96856.09;5024484;28;20140;-63
2022/11/06 11:03:20;;;;;;;25.00;11.55;;;;;;;20.32;61.33;96852.25;5024674;28;20064;-53
2022/11/06 11:05:47;;;;;;;23.65;10.18;;;;;;;19.78;61.82;96814.50;5025514;28;20502;-63
2022/11/06 11:08:29;;;;;;;23.92;12.18;;;;;;;19.91;62.60;96847.16;5025307;28;20425;-56
2022/11/06 11:11:05;;;;;;;20.15;9.98;;;;;;;20.32;61.29;96849.44;5025758;28;20168;-54
2022/11/06 11:13:33;;;;;;;21.33;9.95;;;;;;;20.47;60.55;96845.03;5025617;28;20065;-62
2022/11/06 11:16:01;;;;;;;22.85;11.18;;;;;;;20.72;59.85;96845.97;5025491;28;20140;-62
2022/11/06 11:18:32;;;;;;;19.80;10.23;;;;;;;20.88;59.38;96848.00;5024827;28;20595;-63
2022/11/06 11:21:23;;;;;;;21.70;9.63;;;;;;;20.81;59.49;96839.72;5025415;28;20053;-54
2022/11/06 11:24:09;;;;;;;20.08;10.93;;;;;;;20.81;59.40;96834.91;5025361;28;20088;-54
2022/11/06 11:26:43;;;;;;;27.42;11.88;;;;;;;21.02;58.96;96842.03;5023620;28;20088;-54
2022/11/06 11:29:15;;;;;;;26.48;11.82;;;;;;;20.89;58.52;96833.47;5025080;28;20096;-62
2022/11/06 11:31:46;;;;;;;17.88;10.93;;;;;;;20.98;58.58;96834.91;5025237;28;20100;-54
2022/11/06 11:34:23;;;;;;;19.42;10.25;;;;;;;21.02;58.66;96842.03;5024796;28;20089;-55
2022/11/06 11:36:54;;;;;;;15.93;9.35;;;;;;;20.65;58.85;96794.69;5024614;28;20076;-61
2022/11/06 11:39:25;;;;;;;25.75;11.93;;;;;;;20.78;59.43;96832.16;5024923;28;20709;-54
2022/11/06 11:41:52;;;;;;;24.02;12.15;;;;;;;20.35;59.26;96776.19;5024406;28;20136;-54
2022/11/06 11:44:19;;;;;;;25.58;12.18;;;;;;;20.81;59.45;96842.53;5024571;28;20049;-63
2022/11/06 11:46:51;;;;;;;27.70;16.67;;;;;;;20.86;59.03;96836.38;5023878;28;20089;-56
2022/11/06 11:49:29;;;;;;;20.67;11.98;;;;;;;20.10;60.98;96831.44;5023274;28;20049;-62
2022/11/06 11:51:59;;;;;;;28.33;12.93;;;;;;;20.02;62.26;96830.03;5024889;28;20335;-54
2022/11/06 11:54:30;;;;;;;22.02;12.55;;;;;;;20.40;60.73;96823.50;5025051;28;20076;-62